createdAt,value
2018-01-28T00:00:16.379Z,99198
2018-01-28T00:02:45.353Z,99194
2018-01-28T00:05:13.525Z,99190
2018-01-28T00:07:42.511Z,99189
2018-01-28T00:10:10.694Z,99196
2018-01-28T00:12:38.891Z,99195
2018-01-28T00:15:07.081Z,99191
2018-01-28T00:17:36.063Z,99194
2018-01-28T00:20:05.023Z,99191
2018-01-28T00:22:33.215Z,99181
2018-01-28T00:25:01.382Z,99179
2018-01-28T00:27:29.566Z,99173
2018-01-28T00:29:57.742Z,99169
2018-01-28T00:32:25.910Z,99176
2018-01-28T00:34:54.097Z,99174
2018-01-28T00:37:22.301Z,99173
2018-01-28T00:39:51.235Z,99173
2018-01-28T00:42:19.440Z,99171
2018-01-28T00:44:47.617Z,99172
2018-01-28T00:47:15.785Z,99170
2018-01-28T00:49:43.975Z,99172
2018-01-28T00:52:12.929Z,99172
2018-01-28T00:54:41.106Z,99177
2018-01-28T00:57:09.305Z,99181
2018-01-28T00:59:37.504Z,99180
2018-01-28T01:02:06.437Z,99185
2018-01-28T01:04:34.637Z,99181
2018-01-28T01:07:03.010Z,99185
2018-01-28T01:09:31.199Z,99190
2018-01-28T01:11:59.394Z,99190
2018-01-28T01:14:28.335Z,99183
2018-01-28T01:16:56.534Z,99178
2018-01-28T01:19:24.714Z,99172
2018-01-28T01:21:52.880Z,99186
2018-01-28T01:24:21.058Z,99184
2018-01-28T01:26:49.265Z,99192
2018-01-28T01:29:18.204Z,99188
2018-01-28T01:31:46.375Z,99187
2018-01-28T01:34:14.554Z,99186
2018-01-28T01:36:42.754Z,99186
2018-01-28T01:39:10.947Z,99187
2018-01-28T01:41:39.889Z,99183
2018-01-28T01:44:08.085Z,99182
2018-01-28T01:46:36.269Z,99182
2018-01-28T01:49:04.447Z,99182
2018-01-28T01:51:32.625Z,99176
2018-01-28T01:54:00.805Z,99178
2018-01-28T01:56:28.976Z,99178
2018-01-28T01:58:57.180Z,99182
2018-01-28T02:01:26.142Z,99177
2018-01-28T02:03:54.320Z,99175
2018-01-28T02:06:22.493Z,99175
2018-01-28T02:08:50.694Z,99173
2018-01-28T02:11:19.659Z,99166
2018-01-28T02:13:47.833Z,99168
2018-01-28T02:16:16.009Z,99173
2018-01-28T02:18:44.182Z,99181
2018-01-28T02:21:12.350Z,99179
2018-01-28T02:23:40.519Z,99175
2018-01-28T02:26:08.724Z,99170
2018-01-28T02:28:37.692Z,99167
2018-01-28T02:31:05.930Z,99161
2018-01-28T02:33:34.093Z,99163
2018-01-28T02:36:02.299Z,99166
2018-01-28T02:38:30.466Z,99158
2018-01-28T02:40:58.637Z,99158
2018-01-28T02:43:26.804Z,99154
2018-01-28T02:45:54.973Z,99149
2018-01-28T02:48:23.168Z,99146
2018-01-28T02:50:51.370Z,99145
2018-01-28T02:53:19.568Z,99148
2018-01-28T02:55:48.517Z,99148
2018-01-28T02:58:16.713Z,99162
2018-01-28T03:00:44.881Z,99164
2018-01-28T03:03:13.046Z,99162
2018-01-28T03:05:41.211Z,99157
2018-01-28T03:08:09.407Z,99157
2018-01-28T03:10:37.589Z,99154
2018-01-28T03:13:05.822Z,99158
2018-01-28T03:15:34.021Z,99161
2018-01-28T03:18:02.237Z,99158
2018-01-28T03:20:31.183Z,99164
2018-01-28T03:22:59.364Z,99164
2018-01-28T03:25:27.548Z,99162
2018-01-28T03:27:55.746Z,99154
2018-01-28T03:30:24.728Z,99162
2018-01-28T03:32:52.913Z,99170
2018-01-28T03:35:21.907Z,99162
2018-01-28T03:37:50.853Z,99155
2018-01-28T03:40:19.030Z,99153
2018-01-28T03:42:47.205Z,99153
2018-01-28T03:45:15.379Z,99161
2018-01-28T03:47:43.556Z,99159
2018-01-28T03:50:11.722Z,99166
2018-01-28T03:52:39.911Z,99157
2018-01-28T03:55:08.081Z,99158
2018-01-28T03:57:36.251Z,99165
2018-01-28T04:00:04.466Z,99166
2018-01-28T04:02:33.406Z,99163
2018-01-28T04:05:01.577Z,99154
2018-01-28T04:07:29.794Z,99156
2018-01-28T04:09:57.993Z,99157
2018-01-28T04:12:26.933Z,99167
2018-01-28T04:14:55.099Z,99156
2018-01-28T04:17:23.260Z,99156
2018-01-28T04:19:51.454Z,99159
2018-01-28T04:22:19.631Z,99156
2018-01-28T04:24:47.800Z,99158
2018-01-28T04:27:15.992Z,99153
2018-01-28T04:29:44.961Z,99159
2018-01-28T04:32:13.156Z,99154
2018-01-28T04:34:41.330Z,99155
2018-01-28T04:37:09.506Z,99148
2018-01-28T04:39:37.684Z,99160
2018-01-28T04:42:05.856Z,99157
2018-01-28T04:44:34.029Z,99160
2018-01-28T04:47:02.230Z,99161
2018-01-28T04:49:30.405Z,99157
2018-01-28T04:51:58.598Z,99161
2018-01-28T04:54:27.533Z,99155
2018-01-28T04:56:55.706Z,99158
2018-01-28T04:59:23.897Z,99156
2018-01-28T05:01:52.604Z,99153
2018-01-28T05:04:20.841Z,99154
2018-01-28T05:06:49.044Z,99153
2018-01-28T05:09:17.237Z,99161
2018-01-28T05:11:45.421Z,99157
2018-01-28T05:14:14.362Z,99157
2018-01-28T05:16:42.541Z,99161
2018-01-28T05:19:10.722Z,99153
2018-01-28T05:21:38.925Z,99151
2018-01-28T05:24:07.133Z,99157
2018-01-28T05:26:35.398Z,99161
2018-01-28T05:29:04.374Z,99157
2018-01-28T05:31:32.546Z,99155
2018-01-28T05:34:01.503Z,99161
2018-01-28T05:36:29.721Z,99160
2018-01-28T05:38:57.901Z,99163
2018-01-28T05:41:26.838Z,99156
2018-01-28T05:43:55.019Z,99158
2018-01-28T05:46:23.186Z,99149
2018-01-28T05:48:51.382Z,99146
2018-01-28T05:51:19.593Z,99156
2018-01-28T05:53:48.527Z,99153
2018-01-28T05:56:16.703Z,99154
2018-01-28T05:58:44.890Z,99162
2018-01-28T06:01:13.073Z,99157
2018-01-28T06:03:41.256Z,99153
2018-01-28T06:06:09.423Z,99153
2018-01-28T06:08:37.594Z,99157
2018-01-28T06:11:05.802Z,99160
2018-01-28T06:13:33.971Z,99151
2018-01-28T06:16:02.130Z,99144
2018-01-28T06:18:30.302Z,99141
2018-01-28T06:20:58.482Z,99135
2018-01-28T06:23:26.683Z,99137
2018-01-28T06:25:55.614Z,99137
2018-01-28T06:28:23.777Z,99139
2018-01-28T06:30:51.961Z,99141
2018-01-28T06:33:20.136Z,99142
2018-01-28T06:35:48.318Z,99144
2018-01-28T06:38:16.491Z,99156
2018-01-28T06:40:44.659Z,99158
2018-01-28T06:43:12.833Z,99170
2018-01-28T06:45:40.993Z,99178
2018-01-28T06:48:09.163Z,99175
2018-01-28T06:50:37.332Z,99174
2018-01-28T06:53:06.262Z,99171
2018-01-28T06:55:34.434Z,99174
2018-01-28T06:58:02.609Z,99190
2018-01-28T07:00:30.777Z,99190
2018-01-28T07:02:58.988Z,99185
2018-01-28T07:05:27.196Z,99182
2018-01-28T07:07:56.149Z,99186
2018-01-28T07:10:24.563Z,99177
2018-01-28T07:12:53.498Z,99176
2018-01-28T07:15:21.668Z,99177
2018-01-28T07:17:49.852Z,99178
2018-01-28T07:20:22.850Z,99183
2018-01-28T07:22:51.052Z,99174
2018-01-28T07:25:19.221Z,99177
2018-01-28T07:27:47.394Z,99181
2018-01-28T07:30:15.569Z,99167
2018-01-28T07:32:43.776Z,99172
2018-01-28T07:35:11.940Z,99175
2018-01-28T07:37:40.871Z,99176
2018-01-28T07:40:09.054Z,99172
2018-01-28T07:42:37.231Z,99180
2018-01-28T07:45:05.401Z,99177
2018-01-28T07:47:33.566Z,99180
2018-01-28T07:50:01.762Z,99167
2018-01-28T07:52:29.929Z,99166
2018-01-28T07:54:58.130Z,99167
2018-01-28T07:57:26.335Z,99163
2018-01-28T07:59:54.526Z,99164
2018-01-28T08:02:22.700Z,99165
2018-01-28T08:04:50.861Z,99166
2018-01-28T08:07:19.828Z,99162
2018-01-28T08:09:51.982Z,99156
2018-01-28T08:12:23.000Z,99162
2018-01-28T08:14:51.193Z,99168
2018-01-28T08:20:33.468Z,99167
2018-01-28T08:23:01.650Z,99183
2018-01-28T08:25:29.943Z,99175
2018-01-28T08:27:58.131Z,99175
2018-01-28T08:30:26.313Z,99171
2018-01-28T08:32:55.306Z,99178
2018-01-28T08:35:23.505Z,99176
2018-01-28T08:37:51.686Z,99175
2018-01-28T08:40:20.650Z,99186
2018-01-28T08:42:48.866Z,99184
2018-01-28T08:45:17.806Z,99181
2018-01-28T08:47:46.009Z,99176
2018-01-28T08:50:14.186Z,99180
2018-01-28T08:52:42.372Z,99181
2018-01-28T08:55:10.571Z,99182
2018-01-28T08:57:39.536Z,99185
2018-01-28T09:00:08.630Z,99181
2018-01-28T09:02:36.794Z,99172
2018-01-28T09:05:05.017Z,99176
2018-01-28T09:07:33.206Z,99163
2018-01-28T09:10:01.371Z,99167
2018-01-28T09:12:29.540Z,99177
2018-01-28T09:14:57.728Z,99170
2018-01-28T09:17:25.906Z,99156
2018-01-28T09:19:54.080Z,99166
2018-01-28T09:22:22.237Z,99162
2018-01-28T09:24:50.425Z,99166
2018-01-28T09:27:18.617Z,99168
2018-01-28T09:29:46.795Z,99171
2018-01-28T09:32:14.966Z,99165
2018-01-28T09:34:43.129Z,99154
2018-01-28T09:37:11.306Z,99150
2018-01-28T09:39:39.493Z,99160
2018-01-28T09:42:07.662Z,99173
2018-01-28T09:44:35.837Z,99174
2018-01-28T09:47:04.012Z,99180
2018-01-28T09:49:32.200Z,99166
2018-01-28T09:52:00.369Z,99164
2018-01-28T09:54:28.538Z,99159
2018-01-28T09:56:56.708Z,99161
2018-01-28T09:59:24.897Z,99163
2018-01-28T10:01:53.075Z,99162
2018-01-28T10:04:21.242Z,99161
2018-01-28T10:06:49.446Z,99163
2018-01-28T10:09:17.612Z,99161
2018-01-28T10:11:45.804Z,99155
2018-01-28T10:14:14.777Z,99147
2018-01-28T10:16:43.743Z,99145
2018-01-28T10:19:12.000Z,99151
2018-01-28T10:21:40.197Z,99151
2018-01-28T10:24:08.361Z,99142
2018-01-28T10:26:36.527Z,99145
2018-01-28T10:29:04.711Z,99148
2018-01-28T10:31:32.885Z,99143
2018-01-28T10:34:01.402Z,99132
2018-01-28T10:36:29.952Z,99126
2018-01-28T10:38:58.139Z,99115
2018-01-28T10:41:26.307Z,99121
2018-01-28T10:43:54.517Z,99118
2018-01-28T10:46:22.695Z,99125
2018-01-28T10:48:50.870Z,99117
2018-01-28T10:51:19.060Z,99111
2018-01-28T10:53:48.011Z,99100
2018-01-28T10:56:16.178Z,99089
2018-01-28T10:58:44.367Z,99090
2018-01-28T11:01:12.545Z,99097
2018-01-28T11:03:40.713Z,99093
2018-01-28T11:06:08.902Z,99089
2018-01-28T11:08:37.066Z,99071
2018-01-28T11:11:05.265Z,99065
2018-01-28T11:13:34.229Z,99056
2018-01-28T11:16:02.396Z,99052
2018-01-28T11:18:30.607Z,99052
2018-01-28T11:20:58.777Z,99050
2018-01-28T11:23:26.965Z,99053
2018-01-28T11:25:55.932Z,99051
2018-01-28T11:28:24.129Z,99051
2018-01-28T11:30:53.076Z,99051
2018-01-28T11:33:21.251Z,99041
2018-01-28T11:35:49.412Z,99035
2018-01-28T11:38:17.605Z,99032
2018-01-28T11:40:45.780Z,99028
2018-01-28T11:43:14.595Z,99023
2018-01-28T11:45:42.786Z,99028
2018-01-28T11:48:11.731Z,99021
2018-01-28T11:50:40.667Z,99007
2018-01-28T11:53:10.434Z,99015
2018-01-28T11:55:38.602Z,99017
2018-01-28T11:58:06.823Z,99011
2018-01-28T12:00:35.023Z,98991
2018-01-28T12:03:03.957Z,98988
2018-01-28T12:05:32.124Z,99000
2018-01-28T12:08:00.304Z,98999
2018-01-28T12:10:29.437Z,98998
2018-01-28T12:12:57.623Z,98992
2018-01-28T12:15:26.562Z,99004
2018-01-28T12:17:54.779Z,99003
2018-01-28T12:20:22.985Z,99003
2018-01-28T12:22:51.163Z,99001
2018-01-28T12:25:19.367Z,98998
2018-01-28T12:27:47.550Z,98987
2018-01-28T12:30:15.757Z,98971
2018-01-28T12:32:43.957Z,98963
2018-01-28T12:35:12.159Z,98969
2018-01-28T12:37:40.359Z,98961
2018-01-28T12:40:08.568Z,98967
2018-01-28T12:42:37.515Z,98957
2018-01-28T12:45:05.708Z,98957
2018-01-28T12:47:33.874Z,98950
2018-01-28T12:50:02.062Z,98941
2018-01-28T12:52:30.256Z,98943
2018-01-28T12:54:59.238Z,98946
2018-01-28T12:57:27.409Z,98945
2018-01-28T12:59:55.589Z,98949
2018-01-28T13:02:23.779Z,98949
2018-01-28T13:04:52.745Z,98935
2018-01-28T13:07:20.932Z,98929
2018-01-28T13:09:49.109Z,98929
2018-01-28T13:12:18.056Z,98928
2018-01-28T13:14:46.237Z,98929
2018-01-28T13:17:14.496Z,98917
2018-01-28T13:19:43.434Z,98915
2018-01-28T13:22:11.606Z,98916
2018-01-28T13:24:39.797Z,98926
2018-01-28T13:27:08.738Z,98926
2018-01-28T13:29:36.922Z,98927
2018-01-28T13:32:05.094Z,98928
2018-01-28T13:34:33.619Z,98915
2018-01-28T13:37:02.602Z,98918
2018-01-28T13:39:30.782Z,98910
2018-01-28T13:41:58.977Z,98913
2018-01-28T13:44:27.951Z,98918
2018-01-28T13:46:56.155Z,98909
2018-01-28T13:49:24.340Z,98911
2018-01-28T13:51:52.552Z,98913
2018-01-28T13:54:21.301Z,98916
2018-01-28T13:56:49.470Z,98915
2018-01-28T13:59:17.651Z,98917
2018-01-28T14:01:45.821Z,98919
2018-01-28T14:04:14.030Z,98926
2018-01-28T14:06:42.956Z,98927
2018-01-28T14:09:11.145Z,98927
2018-01-28T14:11:40.083Z,98924
2018-01-28T14:14:08.262Z,98922
2018-01-28T14:16:36.436Z,98918
2018-01-28T14:19:04.634Z,98911
2018-01-28T14:21:32.809Z,98911
2018-01-28T14:24:00.985Z,98914
2018-01-28T14:26:29.174Z,98924
2018-01-28T14:28:58.143Z,98922
2018-01-28T14:31:26.338Z,98926
2018-01-28T14:33:54.538Z,98920
2018-01-28T14:36:23.482Z,98923
2018-01-28T14:38:51.664Z,98937
2018-01-28T14:41:19.834Z,98917
2018-01-28T14:43:48.028Z,98917
2018-01-28T14:46:16.247Z,98929
2018-01-28T14:48:45.313Z,98934
2018-01-28T14:51:14.272Z,98930
2018-01-28T14:53:42.449Z,98930
2018-01-28T14:56:10.631Z,98941
2018-01-28T14:58:38.803Z,98938
2018-01-28T15:01:07.026Z,98943
2018-01-28T15:03:35.190Z,98941
2018-01-28T15:06:03.366Z,98941
2018-01-28T15:08:32.295Z,98943
2018-01-28T15:11:00.474Z,98953
2018-01-28T15:13:28.706Z,98943
2018-01-28T15:15:56.882Z,98946
2018-01-28T15:18:25.063Z,98941
2018-01-28T15:20:53.234Z,98947
2018-01-28T15:23:21.419Z,98952
2018-01-28T15:25:49.619Z,98941
2018-01-28T15:28:17.796Z,98935
2018-01-28T15:30:45.991Z,98944
2018-01-28T15:33:14.196Z,98938
2018-01-28T15:35:43.132Z,98937
2018-01-28T15:38:11.307Z,98948
2018-01-28T15:40:39.482Z,98942
2018-01-28T15:43:07.651Z,98942
2018-01-28T15:45:36.013Z,98948
2018-01-28T15:48:04.183Z,98938
2018-01-28T15:50:32.369Z,98948
2018-01-28T15:53:00.561Z,98952
2018-01-28T15:55:28.831Z,98944
2018-01-28T15:57:57.063Z,98952
2018-01-28T16:00:26.007Z,98953
2018-01-28T16:02:54.194Z,98953
2018-01-28T16:05:22.378Z,98947
2018-01-28T16:07:50.576Z,98948
2018-01-28T16:10:19.514Z,98957
2018-01-28T16:12:47.689Z,98958
2018-01-28T16:15:15.862Z,98948
2018-01-28T16:17:44.051Z,98956
2018-01-28T16:20:12.225Z,98959
2018-01-28T16:22:40.424Z,98958
2018-01-28T16:25:08.609Z,98964
2018-01-28T16:27:36.884Z,98959
2018-01-28T16:30:05.060Z,98956
2018-01-28T16:32:33.315Z,98954
2018-01-28T16:35:01.486Z,98957
2018-01-28T16:37:29.668Z,98962
2018-01-28T16:39:58.626Z,98957
2018-01-28T16:42:26.810Z,98952
2018-01-28T16:44:55.002Z,98958
2018-01-28T16:47:23.213Z,98951
2018-01-28T16:49:52.157Z,98952
2018-01-28T16:52:20.376Z,98952
2018-01-28T16:54:48.571Z,98947
2018-01-28T16:57:17.557Z,98947
2018-01-28T16:59:46.519Z,98948
2018-01-28T17:02:14.689Z,98950
2018-01-28T17:04:42.863Z,98940
2018-01-28T17:07:11.037Z,98953
2018-01-28T17:09:39.224Z,98948
2018-01-28T17:12:07.429Z,98951
2018-01-28T17:14:36.370Z,98953
2018-01-28T17:17:04.594Z,98957
2018-01-28T17:19:33.548Z,98957
2018-01-28T17:22:01.726Z,98959
2018-01-28T17:24:29.928Z,98961
2018-01-28T17:26:58.881Z,98951
2018-01-28T17:29:27.076Z,98963
2018-01-28T17:31:55.248Z,98961
2018-01-28T17:34:23.415Z,98968
2018-01-28T17:36:51.606Z,98971
2018-01-28T17:39:19.785Z,98972
2018-01-28T17:41:47.954Z,98972
2018-01-28T17:44:16.150Z,98968
2018-01-28T17:46:45.093Z,98971
2018-01-28T17:49:13.275Z,98971
2018-01-28T17:51:41.448Z,98978
2018-01-28T17:54:09.634Z,98968
2018-01-28T17:56:37.838Z,98973
2018-01-28T17:59:06.776Z,98967
2018-01-28T18:01:34.956Z,98977
2018-01-28T18:04:03.136Z,98965
2018-01-28T18:06:31.302Z,98976
2018-01-28T18:08:59.483Z,98972
2018-01-28T18:11:27.654Z,98975
2018-01-28T18:13:55.821Z,98980
2018-01-28T18:16:24.012Z,98969
2018-01-28T18:18:52.172Z,98977
2018-01-28T18:21:20.384Z,98976
2018-01-28T18:23:48.629Z,98980
2018-01-28T18:26:16.820Z,98974
2018-01-28T18:28:45.038Z,98981
2018-01-28T18:31:13.229Z,98982
2018-01-28T18:33:41.411Z,98990
2018-01-28T18:36:09.590Z,98989
2018-01-28T18:38:37.778Z,98990
2018-01-28T18:41:05.994Z,98983
2018-01-28T18:43:34.954Z,98976
2018-01-28T18:46:03.129Z,98997
2018-01-28T18:48:31.307Z,98999
2018-01-28T18:50:59.504Z,99004
2018-01-28T18:53:27.695Z,98999
2018-01-28T18:55:56.642Z,99008
2018-01-28T18:58:24.812Z,99002
2018-01-28T19:00:52.980Z,99003
2018-01-28T19:03:21.153Z,99000
2018-01-28T19:05:49.324Z,99005
2018-01-28T19:08:17.499Z,99009
2018-01-28T19:10:45.679Z,99007
2018-01-28T19:13:13.855Z,99005
2018-01-28T19:15:42.024Z,98994
2018-01-28T19:18:10.204Z,98994
2018-01-28T19:20:38.366Z,98986
2018-01-28T19:23:06.532Z,98995
2018-01-28T19:25:34.729Z,98990
2018-01-28T19:28:02.967Z,98989
2018-01-28T19:30:31.909Z,98988
2018-01-28T19:33:00.079Z,98997
2018-01-28T19:35:28.242Z,98985
2018-01-28T19:37:56.432Z,98991
2018-01-28T19:40:24.623Z,98991
2018-01-28T19:42:52.791Z,98983
2018-01-28T19:45:20.955Z,98987
2018-01-28T19:47:49.122Z,98983
2018-01-28T19:50:17.303Z,98986
2018-01-28T19:52:45.469Z,98992
2018-01-28T19:55:13.630Z,98993
2018-01-28T19:57:41.803Z,98994
2018-01-28T20:00:09.973Z,98996
2018-01-28T20:02:38.170Z,99000
2018-01-28T20:05:06.337Z,99001
2018-01-28T20:07:34.506Z,98997
2018-01-28T20:10:02.688Z,98988
2018-01-28T20:12:30.862Z,98975
2018-01-28T20:14:59.134Z,98983
2018-01-28T20:17:27.310Z,98985
2018-01-28T20:19:55.516Z,98987
2018-01-28T20:22:23.698Z,98983
2018-01-28T20:24:51.894Z,98973
2018-01-28T20:27:20.830Z,98981
2018-01-28T20:29:49.208Z,98979
2018-01-28T20:32:17.965Z,98967
2018-01-28T20:34:46.727Z,98978
2018-01-28T20:37:19.271Z,98972
2018-01-28T20:39:47.448Z,98968
2018-01-28T20:42:15.908Z,98986
2018-01-28T20:44:44.513Z,98973
2018-01-28T20:47:13.588Z,98985
2018-01-28T20:49:41.787Z,98972
2018-01-28T20:52:09.959Z,98981
2018-01-28T20:54:38.423Z,98975
2018-01-28T20:57:08.030Z,98980
2018-01-28T20:59:36.492Z,98971
2018-01-28T21:02:09.650Z,98979
2018-01-28T21:04:37.822Z,98979
2018-01-28T21:07:07.029Z,98966
2018-01-28T21:09:37.922Z,98964
2018-01-28T21:12:06.111Z,98966
2018-01-28T21:14:34.305Z,98956
2018-01-28T21:17:03.298Z,98951
2018-01-28T21:19:31.519Z,98943
2018-01-28T21:21:59.840Z,98951
2018-01-28T21:24:28.015Z,98949
2018-01-28T21:26:56.231Z,98942
2018-01-28T21:29:25.168Z,98949
2018-01-28T21:31:53.395Z,98944
2018-01-28T21:34:22.318Z,98943
2018-01-28T21:36:50.501Z,98939
2018-01-28T21:39:18.686Z,98938
2018-01-28T21:41:46.857Z,98929
2018-01-28T21:44:15.038Z,98929
2018-01-28T21:46:43.270Z,98926
2018-01-28T21:49:12.186Z,98935
2018-01-28T21:51:40.356Z,98927
2018-01-28T21:54:08.526Z,98924
2018-01-28T21:56:36.695Z,98924
2018-01-28T21:59:04.896Z,98938
2018-01-28T22:01:33.110Z,98925
2018-01-28T22:04:02.054Z,98931
2018-01-28T22:06:30.250Z,98929
2018-01-28T22:08:58.450Z,98928
2018-01-28T22:11:26.623Z,98919
2018-01-28T22:13:54.803Z,98920
2018-01-28T22:16:23.741Z,98917
2018-01-28T22:18:51.928Z,98917
2018-01-28T22:21:20.106Z,98913
2018-01-28T22:23:48.269Z,98903
2018-01-28T22:26:16.439Z,98908
2018-01-28T22:28:44.630Z,98910
2018-01-28T22:31:12.808Z,98914
2018-01-28T22:33:41.029Z,98914
2018-01-28T22:36:09.200Z,98918
2018-01-28T22:38:38.150Z,98918
2018-01-28T22:41:06.319Z,98914
2018-01-28T22:43:34.481Z,98914
2018-01-28T22:46:02.661Z,98906
2018-01-28T22:48:30.838Z,98904
2018-01-28T22:50:58.989Z,98895
2018-01-28T22:53:27.165Z,98893
2018-01-28T22:55:55.344Z,98894
2018-01-28T22:58:23.506Z,98890
2018-01-28T23:00:51.677Z,98886
2018-01-28T23:03:19.879Z,98875
2018-01-28T23:05:48.066Z,98882
2018-01-28T23:08:16.230Z,98885
2018-01-28T23:10:44.426Z,98872
2018-01-28T23:13:12.614Z,98860
2018-01-28T23:15:40.773Z,98874
2018-01-28T23:18:08.955Z,98869
2018-01-28T23:20:37.151Z,98871
2018-01-28T23:23:06.104Z,98864
2018-01-28T23:25:34.296Z,98868
2018-01-28T23:28:02.467Z,98877
2018-01-28T23:30:30.670Z,98874
2018-01-28T23:32:59.618Z,98866
2018-01-28T23:35:27.802Z,98870
2018-01-28T23:37:56.014Z,98873
2018-01-28T23:40:24.956Z,98876
2018-01-28T23:42:53.125Z,98863
2018-01-28T23:45:21.288Z,98863
2018-01-28T23:47:49.491Z,98862
2018-01-28T23:50:17.663Z,98867
2018-01-28T23:52:45.843Z,98875
2018-01-28T23:55:14.014Z,98878
2018-01-28T23:57:42.942Z,98869
